sensor_id;sensor_type;location;lat;lon;timestamp;P1;durP1;ratioP1;P2;durP2;ratioP2
9392;SDS011;4736;52.508;13.422;2024-02-26T00:00:46;18.30;;;16.33;;
9392;SDS011;4736;52.508;13.422;2024-02-26T00:03:50;18.73;;;16.53;;
9392;SDS011;4736;52.508;13.422;2024-02-26T00:06:55;16.93;;;15.23;;
9392;SDS011;4736;52.508;13.422;2024-02-26T00:09:59;18.43;;;15.57;;
9392;SDS011;4736;52.508;13.422;2024-02-26T00:13:03;18.30;;;15.53;;
9392;SDS011;4736;52.508;13.422;2024-02-26T00:16:06;17.40;;;15.60;;
9392;SDS011;4736;52.508;13.422;2024-02-26T00:19:09;17.27;;;15.47;;
9392;SDS011;4736;52.508;13.422;2024-02-26T00:22:14;17.77;;;15.93;;
9392;SDS011;4736;52.508;13.422;2024-02-26T00:25:18;18.53;;;16.73;;
9392;SDS011;4736;52.508;13.422;2024-02-26T00:28:21;18.73;;;16.83;;
9392;SDS011;4736;52.508;13.422;2024-02-26T00:31:26;18.50;;;16.70;;
9392;SDS011;4736;52.508;13.422;2024-02-26T00:34:29;19.40;;;17.50;;
9392;SDS011;4736;52.508;13.422;2024-02-26T00:37:34;23.60;;;21.30;;
9392;SDS011;4736;52.508;13.422;2024-02-26T00:40:37;22.53;;;20.40;;
9392;SDS011;4736;52.508;13.422;2024-02-26T00:43:40;24.13;;;21.67;;
9392;SDS011;4736;52.508;13.422;2024-02-26T00:46:44;24.03;;;21.53;;
9392;SDS011;4736;52.508;13.422;2024-02-26T00:49:47;23.13;;;20.57;;
9392;SDS011;4736;52.508;13.422;2024-02-26T00:52:52;20.53;;;18.53;;
9392;SDS011;4736;52.508;13.422;2024-02-26T00:55:55;18.70;;;16.83;;
9392;SDS011;4736;52.508;13.422;2024-02-26T00:59:00;19.23;;;17.17;;
9392;SDS011;4736;52.508;13.422;2024-02-26T01:02:03;15.47;;;14.07;;
9392;SDS011;4736;52.508;13.422;2024-02-26T01:05:08;16.53;;;14.83;;
9392;SDS011;4736;52.508;13.422;2024-02-26T01:08:13;15.13;;;13.63;;
9392;SDS011;4736;52.508;13.422;2024-02-26T01:11:16;15.03;;;13.47;;
9392;SDS011;4736;52.508;13.422;2024-02-26T01:14:19;14.03;;;12.73;;
9392;SDS011;4736;52.508;13.422;2024-02-26T01:17:23;12.07;;;11.13;;
9392;SDS011;4736;52.508;13.422;2024-02-26T01:20:26;11.70;;;10.80;;
9392;SDS011;4736;52.508;13.422;2024-02-26T01:23:31;13.00;;;11.80;;
9392;SDS011;4736;52.508;13.422;2024-02-26T01:26:34;11.27;;;10.47;;
9392;SDS011;4736;52.508;13.422;2024-02-26T01:29:37;10.90;;;10.00;;
9392;SDS011;4736;52.508;13.422;2024-02-26T01:32:40;11.90;;;10.90;;
9392;SDS011;4736;52.508;13.422;2024-02-26T01:35:44;11.57;;;10.67;;
9392;SDS011;4736;52.508;13.422;2024-02-26T01:38:49;11.37;;;10.47;;
9392;SDS011;4736;52.508;13.422;2024-02-26T01:41:52;12.20;;;11.20;;
9392;SDS011;4736;52.508;13.422;2024-02-26T01:44:56;12.07;;;11.17;;
9392;SDS011;4736;52.508;13.422;2024-02-26T01:47:59;11.53;;;10.60;;
9392;SDS011;4736;52.508;13.422;2024-02-26T01:51:03;11.00;;;10.03;;
9392;SDS011;4736;52.508;13.422;2024-02-26T01:54:08;11.97;;;11.10;;
9392;SDS011;4736;52.508;13.422;2024-02-26T01:57:12;12.27;;;11.23;;
9392;SDS011;4736;52.508;13.422;2024-02-26T02:00:16;11.83;;;10.97;;
9392;SDS011;4736;52.508;13.422;2024-02-26T02:03:21;11.10;;;10.10;;
9392;SDS011;4736;52.508;13.422;2024-02-26T02:06:24;11.33;;;10.43;;
9392;SDS011;4736;52.508;13.422;2024-02-26T02:09:30;11.70;;;10.67;;
9392;SDS011;4736;52.508;13.422;2024-02-26T02:12:34;10.63;;;9.83;;
9392;SDS011;4736;52.508;13.422;2024-02-26T02:15:40;11.70;;;10.70;;
9392;SDS011;4736;52.508;13.422;2024-02-26T02:18:43;10.77;;;9.97;;
9392;SDS011;4736;52.508;13.422;2024-02-26T02:21:47;10.13;;;9.43;;
9392;SDS011;4736;52.508;13.422;2024-02-26T02:24:51;10.97;;;10.03;;
9392;SDS011;4736;52.508;13.422;2024-02-26T02:27:55;9.43;;;8.83;;
9392;SDS011;4736;52.508;13.422;2024-02-26T02:30:59;10.20;;;9.40;;
9392;SDS011;4736;52.508;13.422;2024-02-26T02:34:02;10.80;;;10.00;;
9392;SDS011;4736;52.508;13.422;2024-02-26T02:37:07;10.83;;;9.93;;
9392;SDS011;4736;52.508;13.422;2024-02-26T02:40:11;9.33;;;8.53;;
9392;SDS011;4736;52.508;13.422;2024-02-26T02:43:14;10.27;;;9.37;;
9392;SDS011;4736;52.508;13.422;2024-02-26T02:46:17;10.10;;;9.40;;
9392;SDS011;4736;52.508;13.422;2024-02-26T02:49:20;9.27;;;8.60;;
9392;SDS011;4736;52.508;13.422;2024-02-26T02:52:27;9.90;;;9.20;;
9392;SDS011;4736;52.508;13.422;2024-02-26T02:55:30;10.00;;;9.20;;
9392;SDS011;4736;52.508;13.422;2024-02-26T02:58:33;8.80;;;8.27;;
9392;SDS011;4736;52.508;13.422;2024-02-26T03:01:36;8.97;;;8.30;;
9392;SDS011;4736;52.508;13.422;2024-02-26T03:04:39;8.43;;;7.83;;
9392;SDS011;4736;52.508;13.422;2024-02-26T03:07:44;8.97;;;8.37;;
9392;SDS011;4736;52.508;13.422;2024-02-26T03:10:47;8.33;;;7.93;;
9392;SDS011;4736;52.508;13.422;2024-02-26T03:13:51;7.90;;;7.50;;
9392;SDS011;4736;52.508;13.422;2024-02-26T03:16:54;8.87;;;8.13;;
9392;SDS011;4736;52.508;13.422;2024-02-26T03:19:57;8.23;;;7.73;;
9392;SDS011;4736;52.508;13.422;2024-02-26T03:23:02;9.13;;;8.60;;
9392;SDS011;4736;52.508;13.422;2024-02-26T03:26:08;8.53;;;7.87;;
9392;SDS011;4736;52.508;13.422;2024-02-26T03:29:15;9.00;;;8.50;;
9392;SDS011;4736;52.508;13.422;2024-02-26T03:32:18;9.57;;;8.90;;
9392;SDS011;4736;52.508;13.422;2024-02-26T03:35:21;10.13;;;9.23;;
9392;SDS011;4736;52.508;13.422;2024-02-26T03:38:26;9.80;;;8.97;;
9392;SDS011;4736;52.508;13.422;2024-02-26T03:41:29;9.33;;;8.57;;
9392;SDS011;4736;52.508;13.422;2024-02-26T03:44:33;9.00;;;8.47;;
9392;SDS011;4736;52.508;13.422;2024-02-26T03:47:37;9.70;;;9.00;;
9392;SDS011;4736;52.508;13.422;2024-02-26T03:50:41;10.30;;;9.50;;
9392;SDS011;4736;52.508;13.422;2024-02-26T03:53:46;9.30;;;8.60;;
9392;SDS011;4736;52.508;13.422;2024-02-26T03:56:49;9.30;;;8.50;;
9392;SDS011;4736;52.508;13.422;2024-02-26T03:59:53;10.57;;;9.77;;
9392;SDS011;4736;52.508;13.422;2024-02-26T04:02:56;9.83;;;9.00;;
9392;SDS011;4736;52.508;13.422;2024-02-26T04:05:59;11.03;;;10.03;;
9392;SDS011;4736;52.508;13.422;2024-02-26T04:09:04;9.50;;;8.80;;
9392;SDS011;4736;52.508;13.422;2024-02-26T04:12:07;9.33;;;8.63;;
9392;SDS011;4736;52.508;13.422;2024-02-26T04:15:11;9.53;;;8.93;;
9392;SDS011;4736;52.508;13.422;2024-02-26T04:18:15;10.40;;;9.63;;
9392;SDS011;4736;52.508;13.422;2024-02-26T04:21:19;10.73;;;9.83;;
9392;SDS011;4736;52.508;13.422;2024-02-26T04:24:23;9.63;;;9.03;;
9392;SDS011;4736;52.508;13.422;2024-02-26T04:27:26;9.17;;;8.53;;
9392;SDS011;4736;52.508;13.422;2024-02-26T04:30:30;10.27;;;9.57;;
9392;SDS011;4736;52.508;13.422;2024-02-26T04:33:33;10.43;;;9.73;;
9392;SDS011;4736;52.508;13.422;2024-02-26T04:36:37;9.73;;;8.90;;
9392;SDS011;4736;52.508;13.422;2024-02-26T04:39:42;10.70;;;9.80;;
9392;SDS011;4736;52.508;13.422;2024-02-26T04:42:47;9.70;;;8.87;;
9392;SDS011;4736;52.508;13.422;2024-02-26T04:45:50;10.77;;;9.93;;
9392;SDS011;4736;52.508;13.422;2024-02-26T04:48:54;10.80;;;9.80;;
9392;SDS011;4736;52.508;13.422;2024-02-26T04:51:58;12.27;;;11.20;;
9392;SDS011;4736;52.508;13.422;2024-02-26T04:55:03;12.87;;;11.53;;
9392;SDS011;4736;52.508;13.422;2024-02-26T04:58:07;12.87;;;11.80;;
9392;SDS011;4736;52.508;13.422;2024-02-26T05:01:10;13.20;;;12.10;;
9392;SDS011;4736;52.508;13.422;2024-02-26T05:04:13;13.37;;;12.17;;
9392;SDS011;4736;52.508;13.422;2024-02-26T05:07:17;14.10;;;12.80;;
9392;SDS011;4736;52.508;13.422;2024-02-26T05:10:21;14.57;;;13.07;;
9392;SDS011;4736;52.508;13.422;2024-02-26T05:13:25;13.93;;;12.43;;
9392;SDS011;4736;52.508;13.422;2024-02-26T05:16:28;14.70;;;13.33;;
9392;SDS011;4736;52.508;13.422;2024-02-26T05:19:32;15.17;;;13.60;;
9392;SDS011;4736;52.508;13.422;2024-02-26T05:22:35;15.87;;;14.23;;
9392;SDS011;4736;52.508;13.422;2024-02-26T05:25:41;15.43;;;13.83;;
9392;SDS011;4736;52.508;13.422;2024-02-26T05:28:46;15.27;;;13.67;;
9392;SDS011;4736;52.508;13.422;2024-02-26T05:31:49;13.90;;;12.70;;
9392;SDS011;4736;52.508;13.422;2024-02-26T05:34:52;14.77;;;13.47;;
9392;SDS011;4736;52.508;13.422;2024-02-26T05:37:55;14.47;;;13.07;;
9392;SDS011;4736;52.508;13.422;2024-02-26T05:41:00;14.80;;;13.30;;
9392;SDS011;4736;52.508;13.422;2024-02-26T05:44:03;17.07;;;15.27;;
9392;SDS011;4736;52.508;13.422;2024-02-26T05:47:06;15.97;;;14.37;;
9392;SDS011;4736;52.508;13.422;2024-02-26T05:50:10;16.50;;;14.77;;
9392;SDS011;4736;52.508;13.422;2024-02-26T05:53:14;19.03;;;16.73;;
9392;SDS011;4736;52.508;13.422;2024-02-26T05:56:19;16.70;;;15.10;;
9392;SDS011;4736;52.508;13.422;2024-02-26T05:59:22;17.90;;;16.20;;
9392;SDS011;4736;52.508;13.422;2024-02-26T06:02:26;16.90;;;15.23;;
9392;SDS011;4736;52.508;13.422;2024-02-26T06:05:29;16.20;;;14.70;;
9392;SDS011;4736;52.508;13.422;2024-02-26T06:08:32;15.10;;;13.77;;
9392;SDS011;4736;52.508;13.422;2024-02-26T06:11:36;15.87;;;14.30;;
9392;SDS011;4736;52.508;13.422;2024-02-26T06:14:41;15.43;;;13.80;;
9392;SDS011;4736;52.508;13.422;2024-02-26T06:17:45;15.33;;;13.80;;
9392;SDS011;4736;52.508;13.422;2024-02-26T06:20:48;17.37;;;15.53;;
9392;SDS011;4736;52.508;13.422;2024-02-26T06:23:52;21.60;;;18.20;;
9392;SDS011;4736;52.508;13.422;2024-02-26T06:26:56;15.93;;;14.33;;
9392;SDS011;4736;52.508;13.422;2024-02-26T06:29:59;17.07;;;15.40;;
9392;SDS011;4736;52.508;13.422;2024-02-26T06:33:03;18.27;;;16.37;;
9392;SDS011;4736;52.508;13.422;2024-02-26T06:36:06;15.60;;;14.07;;
9392;SDS011;4736;52.508;13.422;2024-02-26T06:39:10;14.83;;;13.33;;
9392;SDS011;4736;52.508;13.422;2024-02-26T06:42:15;17.03;;;15.20;;
9392;SDS011;4736;52.508;13.422;2024-02-26T06:45:19;17.57;;;15.87;;
9392;SDS011;4736;52.508;13.422;2024-02-26T06:48:23;20.03;;;15.60;;
9392;SDS011;4736;52.508;13.422;2024-02-26T06:51:26;21.60;;;16.87;;
9392;SDS011;4736;52.508;13.422;2024-02-26T06:54:30;18.13;;;16.23;;
9392;SDS011;4736;52.508;13.422;2024-02-26T06:57:34;20.00;;;16.67;;
9392;SDS011;4736;52.508;13.422;2024-02-26T07:00:37;17.23;;;15.40;;
9392;SDS011;4736;52.508;13.422;2024-02-26T07:03:41;16.60;;;14.80;;
9392;SDS011;4736;52.508;13.422;2024-02-26T07:06:44;17.70;;;15.80;;
9392;SDS011;4736;52.508;13.422;2024-02-26T07:09:48;18.80;;;16.90;;
9392;SDS011;4736;52.508;13.422;2024-02-26T07:12:53;20.40;;;17.27;;
9392;SDS011;4736;52.508;13.422;2024-02-26T07:15:56;16.90;;;15.10;;
9392;SDS011;4736;52.508;13.422;2024-02-26T07:18:59;19.17;;;17.20;;
9392;SDS011;4736;52.508;13.422;2024-02-26T07:22:02;17.33;;;15.50;;
9392;SDS011;4736;52.508;13.422;2024-02-26T07:25:06;18.63;;;16.67;;
9392;SDS011;4736;52.508;13.422;2024-02-26T07:28:11;18.47;;;16.57;;
9392;SDS011;4736;52.508;13.422;2024-02-26T07:31:14;19.10;;;16.53;;
9392;SDS011;4736;52.508;13.422;2024-02-26T07:34:17;20.23;;;15.87;;
9392;SDS011;4736;52.508;13.422;2024-02-26T07:37:21;20.90;;;17.20;;
9392;SDS011;4736;52.508;13.422;2024-02-26T07:40:24;18.77;;;16.97;;
9392;SDS011;4736;52.508;13.422;2024-02-26T07:43:28;19.17;;;17.27;;
9392;SDS011;4736;52.508;13.422;2024-02-26T07:46:32;19.20;;;16.13;;
9392;SDS011;4736;52.508;13.422;2024-02-26T07:49:35;18.43;;;16.07;;
9392;SDS011;4736;52.508;13.422;2024-02-26T07:52:40;18.73;;;16.73;;
9392;SDS011;4736;52.508;13.422;2024-02-26T07:55:43;18.50;;;16.77;;
9392;SDS011;4736;52.508;13.422;2024-02-26T07:58:47;20.77;;;18.50;;
9392;SDS011;4736;52.508;13.422;2024-02-26T08:01:51;19.80;;;17.73;;
9392;SDS011;4736;52.508;13.422;2024-02-26T08:04:59;19.43;;;17.53;;
9392;SDS011;4736;52.508;13.422;2024-02-26T08:08:02;17.77;;;16.10;;
9392;SDS011;4736;52.508;13.422;2024-02-26T08:11:06;21.57;;;17.80;;
9392;SDS011;4736;52.508;13.422;2024-02-26T08:14:11;22.70;;;17.90;;
9392;SDS011;4736;52.508;13.422;2024-02-26T08:17:15;22.03;;;17.63;;
9392;SDS011;4736;52.508;13.422;2024-02-26T08:20:18;18.87;;;17.10;;
9392;SDS011;4736;52.508;13.422;2024-02-26T08:23:21;19.20;;;16.83;;
9392;SDS011;4736;52.508;13.422;2024-02-26T08:26:25;20.70;;;17.67;;
9392;SDS011;4736;52.508;13.422;2024-02-26T08:29:29;22.13;;;18.53;;
9392;SDS011;4736;52.508;13.422;2024-02-26T08:32:32;21.13;;;17.83;;
9392;SDS011;4736;52.508;13.422;2024-02-26T08:35:36;20.33;;;18.23;;
9392;SDS011;4736;52.508;13.422;2024-02-26T08:38:39;26.93;;;19.87;;
9392;SDS011;4736;52.508;13.422;2024-02-26T08:41:42;21.73;;;18.37;;
9392;SDS011;4736;52.508;13.422;2024-02-26T08:44:47;22.23;;;18.30;;
9392;SDS011;4736;52.508;13.422;2024-02-26T08:47:50;20.07;;;18.00;;
9392;SDS011;4736;52.508;13.422;2024-02-26T08:50:53;20.83;;;17.33;;
9392;SDS011;4736;52.508;13.422;2024-02-26T08:53:57;18.37;;;16.37;;
9392;SDS011;4736;52.508;13.422;2024-02-26T08:57:00;19.63;;;16.47;;
9392;SDS011;4736;52.508;13.422;2024-02-26T09:00:06;19.27;;;17.27;;
9392;SDS011;4736;52.508;13.422;2024-02-26T09:03:10;19.47;;;17.03;;
9392;SDS011;4736;52.508;13.422;2024-02-26T09:06:14;18.10;;;16.17;;
9392;SDS011;4736;52.508;13.422;2024-02-26T09:09:18;21.33;;;17.60;;
9392;SDS011;4736;52.508;13.422;2024-02-26T09:12:21;18.17;;;16.27;;
9392;SDS011;4736;52.508;13.422;2024-02-26T09:15:25;18.47;;;16.47;;
9392;SDS011;4736;52.508;13.422;2024-02-26T09:18:30;20.13;;;16.47;;
9392;SDS011;4736;52.508;13.422;2024-02-26T09:21:34;18.63;;;15.80;;
9392;SDS011;4736;52.508;13.422;2024-02-26T09:24:37;18.73;;;16.23;;
9392;SDS011;4736;52.508;13.422;2024-02-26T09:27:41;17.87;;;16.10;;
9392;SDS011;4736;52.508;13.422;2024-02-26T09:30:46;17.57;;;15.77;;
9392;SDS011;4736;52.508;13.422;2024-02-26T09:33:50;18.10;;;16.27;;
9392;SDS011;4736;52.508;13.422;2024-02-26T09:36:54;16.93;;;15.17;;
9392;SDS011;4736;52.508;13.422;2024-02-26T09:40:09;18.13;;;16.23;;
9392;SDS011;4736;52.508;13.422;2024-02-26T09:43:13;17.67;;;15.43;;
9392;SDS011;4736;52.508;13.422;2024-02-26T09:46:20;16.60;;;14.87;;
9392;SDS011;4736;52.508;13.422;2024-02-26T09:49:23;17.67;;;15.87;;
9392;SDS011;4736;52.508;13.422;2024-02-26T09:52:27;17.67;;;15.67;;
9392;SDS011;4736;52.508;13.422;2024-02-26T09:55:33;17.17;;;15.37;;
9392;SDS011;4736;52.508;13.422;2024-02-26T09:58:36;15.77;;;14.13;;
9392;SDS011;4736;52.508;13.422;2024-02-26T10:01:42;17.30;;;14.87;;
9392;SDS011;4736;52.508;13.422;2024-02-26T10:04:50;17.50;;;14.53;;
9392;SDS011;4736;52.508;13.422;2024-02-26T10:07:57;16.17;;;14.50;;
9392;SDS011;4736;52.508;13.422;2024-02-26T10:11:02;15.43;;;13.90;;
9392;SDS011;4736;52.508;13.422;2024-02-26T10:14:06;15.73;;;14.23;;
9392;SDS011;4736;52.508;13.422;2024-02-26T10:17:12;14.87;;;13.43;;
9392;SDS011;4736;52.508;13.422;2024-02-26T10:20:16;16.27;;;13.17;;
9392;SDS011;4736;52.508;13.422;2024-02-26T10:23:23;16.83;;;13.87;;
9392;SDS011;4736;52.508;13.422;2024-02-26T10:26:28;15.83;;;14.20;;
9392;SDS011;4736;52.508;13.422;2024-02-26T10:29:31;15.07;;;12.70;;
9392;SDS011;4736;52.508;13.422;2024-02-26T10:32:38;14.57;;;13.07;;
9392;SDS011;4736;52.508;13.422;2024-02-26T10:35:45;14.17;;;12.73;;
9392;SDS011;4736;52.508;13.422;2024-02-26T10:38:48;13.60;;;12.40;;
9392;SDS011;4736;52.508;13.422;2024-02-26T10:41:54;13.87;;;12.57;;
9392;SDS011;4736;52.508;13.422;2024-02-26T10:44:57;14.33;;;12.83;;
9392;SDS011;4736;52.508;13.422;2024-02-26T10:48:02;14.03;;;12.83;;
9392;SDS011;4736;52.508;13.422;2024-02-26T10:51:06;13.80;;;12.53;;
9392;SDS011;4736;52.508;13.422;2024-02-26T10:54:15;13.40;;;12.20;;
9392;SDS011;4736;52.508;13.422;2024-02-26T10:57:19;14.20;;;12.03;;
9392;SDS011;4736;52.508;13.422;2024-02-26T11:00:23;14.40;;;12.13;;
9392;SDS011;4736;52.508;13.422;2024-02-26T11:03:31;12.27;;;11.27;;
9392;SDS011;4736;52.508;13.422;2024-02-26T11:06:36;12.40;;;11.17;;
9392;SDS011;4736;52.508;13.422;2024-02-26T11:09:40;12.40;;;11.20;;
9392;SDS011;4736;52.508;13.422;2024-02-26T11:12:47;12.93;;;11.87;;
9392;SDS011;4736;52.508;13.422;2024-02-26T11:15:52;12.37;;;11.10;;
9392;SDS011;4736;52.508;13.422;2024-02-26T11:19:00;11.90;;;10.80;;
9392;SDS011;4736;52.508;13.422;2024-02-26T11:22:04;10.67;;;9.80;;
9392;SDS011;4736;52.508;13.422;2024-02-26T11:25:21;12.40;;;11.13;;
9392;SDS011;4736;52.508;13.422;2024-02-26T11:28:25;11.37;;;10.30;;
9392;SDS011;4736;52.508;13.422;2024-02-26T11:31:30;11.53;;;10.30;;
9392;SDS011;4736;52.508;13.422;2024-02-26T11:34:39;11.17;;;10.17;;
9392;SDS011;4736;52.508;13.422;2024-02-26T11:37:51;11.40;;;10.30;;
9392;SDS011;4736;52.508;13.422;2024-02-26T11:40:56;12.80;;;10.73;;
9392;SDS011;4736;52.508;13.422;2024-02-26T11:44:01;11.23;;;10.23;;
9392;SDS011;4736;52.508;13.422;2024-02-26T11:47:11;12.17;;;10.97;;
9392;SDS011;4736;52.508;13.422;2024-02-26T11:53:45;11.27;;;10.27;;
9392;SDS011;4736;52.508;13.422;2024-02-26T11:56:50;13.83;;;12.03;;
9392;SDS011;4736;52.508;13.422;2024-02-26T11:59:53;12.47;;;11.17;;
9392;SDS011;4736;52.508;13.422;2024-02-26T12:02:57;13.40;;;12.17;;
9392;SDS011;4736;52.508;13.422;2024-02-26T12:06:04;13.77;;;12.60;;
9392;SDS011;4736;52.508;13.422;2024-02-26T12:09:08;12.83;;;11.73;;
9392;SDS011;4736;52.508;13.422;2024-02-26T12:12:13;13.93;;;12.43;;
9392;SDS011;4736;52.508;13.422;2024-02-26T12:15:22;13.33;;;12.07;;
9392;SDS011;4736;52.508;13.422;2024-02-26T12:18:27;13.47;;;12.27;;
9392;SDS011;4736;52.508;13.422;2024-02-26T12:21:34;14.53;;;12.37;;
9392;SDS011;4736;52.508;13.422;2024-02-26T12:24:38;14.83;;;13.43;;
9392;SDS011;4736;52.508;13.422;2024-02-26T12:27:41;13.20;;;12.00;;
9392;SDS011;4736;52.508;13.422;2024-02-26T12:30:45;13.60;;;12.33;;
9392;SDS011;4736;52.508;13.422;2024-02-26T12:33:48;13.50;;;12.40;;
9392;SDS011;4736;52.508;13.422;2024-02-26T12:36:55;13.47;;;12.23;;
9392;SDS011;4736;52.508;13.422;2024-02-26T12:39:58;12.90;;;11.90;;
9392;SDS011;4736;52.508;13.422;2024-02-26T12:43:01;13.03;;;11.80;;
9392;SDS011;4736;52.508;13.422;2024-02-26T12:46:04;12.60;;;11.40;;
9392;SDS011;4736;52.508;13.422;2024-02-26T12:49:09;12.53;;;11.17;;
9392;SDS011;4736;52.508;13.422;2024-02-26T12:52:19;11.63;;;10.60;;
9392;SDS011;4736;52.508;13.422;2024-02-26T12:55:23;11.97;;;11.07;;
9392;SDS011;4736;52.508;13.422;2024-02-26T12:58:27;11.50;;;10.23;;
9392;SDS011;4736;52.508;13.422;2024-02-26T13:01:32;9.97;;;9.03;;
9392;SDS011;4736;52.508;13.422;2024-02-26T13:04:36;11.43;;;10.43;;
9392;SDS011;4736;52.508;13.422;2024-02-26T13:07:42;10.17;;;9.17;;
9392;SDS011;4736;52.508;13.422;2024-02-26T13:10:46;10.03;;;9.23;;
9392;SDS011;4736;52.508;13.422;2024-02-26T13:13:49;9.03;;;8.33;;
9392;SDS011;4736;52.508;13.422;2024-02-26T13:16:56;9.67;;;8.77;;
9392;SDS011;4736;52.508;13.422;2024-02-26T13:19:59;10.17;;;9.23;;
9392;SDS011;4736;52.508;13.422;2024-02-26T13:23:04;8.87;;;8.17;;
9392;SDS011;4736;52.508;13.422;2024-02-26T13:26:08;8.93;;;8.27;;
9392;SDS011;4736;52.508;13.422;2024-02-26T13:29:18;8.30;;;7.60;;
9392;SDS011;4736;52.508;13.422;2024-02-26T13:32:21;9.27;;;8.20;;
9392;SDS011;4736;52.508;13.422;2024-02-26T13:35:24;8.93;;;8.20;;
9392;SDS011;4736;52.508;13.422;2024-02-26T13:38:29;7.33;;;6.83;;
9392;SDS011;4736;52.508;13.422;2024-02-26T13:41:32;8.83;;;7.30;;
9392;SDS011;4736;52.508;13.422;2024-02-26T13:44:36;7.27;;;6.80;;
9392;SDS011;4736;52.508;13.422;2024-02-26T13:47:41;7.13;;;6.53;;
9392;SDS011;4736;52.508;13.422;2024-02-26T13:50:44;8.57;;;7.07;;
9392;SDS011;4736;52.508;13.422;2024-02-26T13:53:49;7.50;;;7.00;;
9392;SDS011;4736;52.508;13.422;2024-02-26T13:56:53;7.20;;;6.70;;
9392;SDS011;4736;52.508;13.422;2024-02-26T13:59:56;7.10;;;6.60;;
9392;SDS011;4736;52.508;13.422;2024-02-26T14:02:59;7.80;;;7.17;;
9392;SDS011;4736;52.508;13.422;2024-02-26T14:06:03;8.03;;;7.33;;
9392;SDS011;4736;52.508;13.422;2024-02-26T14:09:08;7.03;;;6.40;;
9392;SDS011;4736;52.508;13.422;2024-02-26T14:12:12;7.23;;;6.67;;
9392;SDS011;4736;52.508;13.422;2024-02-26T14:15:15;7.67;;;6.73;;
9392;SDS011;4736;52.508;13.422;2024-02-26T14:18:18;7.57;;;7.07;;
9392;SDS011;4736;52.508;13.422;2024-02-26T14:21:22;8.00;;;7.40;;
9392;SDS011;4736;52.508;13.422;2024-02-26T14:24:26;8.27;;;7.70;;
9392;SDS011;4736;52.508;13.422;2024-02-26T14:27:30;8.10;;;7.43;;
9392;SDS011;4736;52.508;13.422;2024-02-26T14:30:33;9.37;;;8.40;;
9392;SDS011;4736;52.508;13.422;2024-02-26T14:33:37;8.43;;;7.73;;
9392;SDS011;4736;52.508;13.422;2024-02-26T14:36:41;9.23;;;8.43;;
9392;SDS011;4736;52.508;13.422;2024-02-26T14:39:46;8.80;;;8.10;;
9392;SDS011;4736;52.508;13.422;2024-02-26T14:42:51;11.17;;;9.83;;
9392;SDS011;4736;52.508;13.422;2024-02-26T14:45:54;9.53;;;8.63;;
9392;SDS011;4736;52.508;13.422;2024-02-26T14:48:58;9.20;;;8.07;;
9392;SDS011;4736;52.508;13.422;2024-02-26T14:52:01;9.67;;;8.67;;
9392;SDS011;4736;52.508;13.422;2024-02-26T14:55:07;9.17;;;8.37;;
9392;SDS011;4736;52.508;13.422;2024-02-26T14:58:10;10.53;;;8.47;;
9392;SDS011;4736;52.508;13.422;2024-02-26T15:01:13;9.40;;;8.73;;
9392;SDS011;4736;52.508;13.422;2024-02-26T15:04:17;9.37;;;8.47;;
9392;SDS011;4736;52.508;13.422;2024-02-26T15:07:20;8.53;;;7.77;;
9392;SDS011;4736;52.508;13.422;2024-02-26T15:10:25;9.13;;;8.50;;
9392;SDS011;4736;52.508;13.422;2024-02-26T15:13:30;9.30;;;8.60;;
9392;SDS011;4736;52.508;13.422;2024-02-26T15:16:33;9.07;;;8.27;;
9392;SDS011;4736;52.508;13.422;2024-02-26T15:19:36;9.57;;;8.77;;
9392;SDS011;4736;52.508;13.422;2024-02-26T15:22:40;9.00;;;8.20;;
9392;SDS011;4736;52.508;13.422;2024-02-26T15:25:44;10.73;;;8.20;;
9392;SDS011;4736;52.508;13.422;2024-02-26T15:28:48;9.17;;;8.33;;
9392;SDS011;4736;52.508;13.422;2024-02-26T15:31:51;11.30;;;9.60;;
9392;SDS011;4736;52.508;13.422;2024-02-26T15:34:54;10.00;;;9.10;;
9392;SDS011;4736;52.508;13.422;2024-02-26T15:37:58;10.40;;;9.50;;
9392;SDS011;4736;52.508;13.422;2024-02-26T15:41:03;10.50;;;9.57;;
9392;SDS011;4736;52.508;13.422;2024-02-26T15:44:14;11.30;;;9.97;;
9392;SDS011;4736;52.508;13.422;2024-02-26T15:47:17;11.30;;;10.30;;
9392;SDS011;4736;52.508;13.422;2024-02-26T15:50:21;10.97;;;10.13;;
9392;SDS011;4736;52.508;13.422;2024-02-26T15:53:24;12.03;;;10.67;;
9392;SDS011;4736;52.508;13.422;2024-02-26T15:56:29;12.07;;;10.90;;
9392;SDS011;4736;52.508;13.422;2024-02-26T15:59:33;11.17;;;10.07;;
9392;SDS011;4736;52.508;13.422;2024-02-26T16:02:37;13.23;;;10.63;;
9392;SDS011;4736;52.508;13.422;2024-02-26T16:05:40;13.07;;;11.77;;
9392;SDS011;4736;52.508;13.422;2024-02-26T16:08:44;12.40;;;11.00;;
9392;SDS011;4736;52.508;13.422;2024-02-26T16:11:48;13.67;;;12.10;;
9392;SDS011;4736;52.508;13.422;2024-02-26T16:14:52;11.97;;;10.90;;
9392;SDS011;4736;52.508;13.422;2024-02-26T16:17:55;11.87;;;10.77;;
9392;SDS011;4736;52.508;13.422;2024-02-26T16:21:00;13.70;;;12.30;;
9392;SDS011;4736;52.508;13.422;2024-02-26T16:24:03;13.40;;;12.17;;
9392;SDS011;4736;52.508;13.422;2024-02-26T16:27:08;12.37;;;11.27;;
9392;SDS011;4736;52.508;13.422;2024-02-26T16:30:12;13.63;;;12.43;;
9392;SDS011;4736;52.508;13.422;2024-02-26T16:33:15;14.97;;;13.57;;
9392;SDS011;4736;52.508;13.422;2024-02-26T16:36:19;14.60;;;13.20;;
9392;SDS011;4736;52.508;13.422;2024-02-26T16:39:22;15.67;;;13.10;;
9392;SDS011;4736;52.508;13.422;2024-02-26T16:42:27;15.07;;;13.30;;
9392;SDS011;4736;52.508;13.422;2024-02-26T16:45:30;14.47;;;13.07;;
9392;SDS011;4736;52.508;13.422;2024-02-26T16:48:34;13.60;;;12.40;;
9392;SDS011;4736;52.508;13.422;2024-02-26T16:51:38;14.00;;;12.63;;
9392;SDS011;4736;52.508;13.422;2024-02-26T16:54:41;13.37;;;12.27;;
9392;SDS011;4736;52.508;13.422;2024-02-26T16:57:46;14.10;;;12.63;;
9392;SDS011;4736;52.508;13.422;2024-02-26T17:00:49;18.97;;;14.17;;
9392;SDS011;4736;52.508;13.422;2024-02-26T17:03:53;14.03;;;12.70;;
9392;SDS011;4736;52.508;13.422;2024-02-26T17:06:56;13.23;;;11.90;;
9392;SDS011;4736;52.508;13.422;2024-02-26T17:09:59;14.97;;;13.57;;
9392;SDS011;4736;52.508;13.422;2024-02-26T17:13:04;16.63;;;13.50;;
9392;SDS011;4736;52.508;13.422;2024-02-26T17:16:07;14.53;;;13.03;;
9392;SDS011;4736;52.508;13.422;2024-02-26T17:19:10;13.57;;;12.33;;
9392;SDS011;4736;52.508;13.422;2024-02-26T17:22:13;14.83;;;13.03;;
9392;SDS011;4736;52.508;13.422;2024-02-26T17:25:18;16.03;;;13.70;;
9392;SDS011;4736;52.508;13.422;2024-02-26T17:28:23;14.97;;;13.53;;
9392;SDS011;4736;52.508;13.422;2024-02-26T17:31:26;16.83;;;14.27;;
9392;SDS011;4736;52.508;13.422;2024-02-26T17:34:31;16.63;;;14.27;;
9392;SDS011;4736;52.508;13.422;2024-02-26T17:37:34;24.40;;;16.70;;
9392;SDS011;4736;52.508;13.422;2024-02-26T17:40:37;22.63;;;16.90;;
9392;SDS011;4736;52.508;13.422;2024-02-26T17:43:42;24.77;;;16.87;;
9392;SDS011;4736;52.508;13.422;2024-02-26T17:46:45;22.77;;;16.87;;
9392;SDS011;4736;52.508;13.422;2024-02-26T17:49:48;26.27;;;17.47;;
9392;SDS011;4736;52.508;13.422;2024-02-26T17:52:51;26.07;;;19.43;;
9392;SDS011;4736;52.508;13.422;2024-02-26T17:55:56;23.60;;;18.57;;
9392;SDS011;4736;52.508;13.422;2024-02-26T17:59:03;24.27;;;18.60;;
9392;SDS011;4736;52.508;13.422;2024-02-26T18:02:06;24.97;;;18.33;;
9392;SDS011;4736;52.508;13.422;2024-02-26T18:05:09;25.73;;;18.20;;
9392;SDS011;4736;52.508;13.422;2024-02-26T18:08:13;24.20;;;16.83;;
9392;SDS011;4736;52.508;13.422;2024-02-26T18:11:16;20.87;;;17.33;;
9392;SDS011;4736;52.508;13.422;2024-02-26T18:14:21;18.67;;;16.13;;
9392;SDS011;4736;52.508;13.422;2024-02-26T18:17:24;17.87;;;16.07;;
9392;SDS011;4736;52.508;13.422;2024-02-26T18:20:28;19.93;;;15.50;;
9392;SDS011;4736;52.508;13.422;2024-02-26T18:23:31;16.87;;;14.43;;